sensor_id;sensor_type;location;lat;lon;timestamp;P1;durP1;ratioP1;P2;durP2;ratioP2
60098;SDS011;62818;49.394;8.686;2022-12-10T00:01:09;26.27;;;21.88;;
60098;SDS011;62818;49.394;8.686;2022-12-10T00:02:16;25.77;;;22.35;;
60098;SDS011;62818;49.394;8.686;2022-12-10T00:03:21;24.83;;;22.10;;
60098;SDS011;62818;49.394;8.686;2022-12-10T00:04:21;25.92;;;21.95;;
60098;SDS011;62818;49.394;8.686;2022-12-10T00:05:26;26.73;;;22.33;;
60098;SDS011;62818;49.394;8.686;2022-12-10T00:06:29;25.20;;;21.38;;
60098;SDS011;62818;49.394;8.686;2022-12-10T00:07:35;23.92;;;21.02;;
60098;SDS011;62818;49.394;8.686;2022-12-10T00:08:37;27.00;;;21.02;;
60098;SDS011;62818;49.394;8.686;2022-12-10T00:09:39;24.95;;;21.42;;
60098;SDS011;62818;49.394;8.686;2022-12-10T00:10:41;25.73;;;21.92;;
60098;SDS011;62818;49.394;8.686;2022-12-10T00:11:44;27.13;;;22.10;;
60098;SDS011;62818;49.394;8.686;2022-12-10T00:12:45;31.20;;;22.37;;
60098;SDS011;62818;49.394;8.686;2022-12-10T00:13:46;25.57;;;21.83;;
60098;SDS011;62818;49.394;8.686;2022-12-10T00:14:48;25.40;;;21.83;;
60098;SDS011;62818;49.394;8.686;2022-12-10T00:15:51;27.23;;;22.05;;
60098;SDS011;62818;49.394;8.686;2022-12-10T00:16:53;27.95;;;22.55;;
60098;SDS011;62818;49.394;8.686;2022-12-10T00:17:54;25.57;;;21.17;;
60098;SDS011;62818;49.394;8.686;2022-12-10T00:18:57;29.40;;;23.55;;
60098;SDS011;62818;49.394;8.686;2022-12-10T00:20:00;27.27;;;21.93;;
60098;SDS011;62818;49.394;8.686;2022-12-10T00:21:09;26.80;;;22.55;;
60098;SDS011;62818;49.394;8.686;2022-12-10T00:22:17;27.00;;;21.63;;
60098;SDS011;62818;49.394;8.686;2022-12-10T00:23:21;28.35;;;22.90;;
60098;SDS011;62818;49.394;8.686;2022-12-10T00:24:24;24.40;;;21.80;;
60098;SDS011;62818;49.394;8.686;2022-12-10T00:25:24;24.60;;;21.93;;
60098;SDS011;62818;49.394;8.686;2022-12-10T00:26:29;25.92;;;22.65;;
60098;SDS011;62818;49.394;8.686;2022-12-10T00:27:35;26.45;;;22.58;;
60098;SDS011;62818;49.394;8.686;2022-12-10T00:28:39;26.17;;;22.30;;
60098;SDS011;62818;49.394;8.686;2022-12-10T00:29:42;28.70;;;23.20;;
60098;SDS011;62818;49.394;8.686;2022-12-10T00:30:45;26.95;;;22.40;;
60098;SDS011;62818;49.394;8.686;2022-12-10T00:31:48;26.67;;;21.98;;
60098;SDS011;62818;49.394;8.686;2022-12-10T00:32:48;25.87;;;23.07;;
60098;SDS011;62818;49.394;8.686;2022-12-10T00:33:49;30.23;;;23.90;;
60098;SDS011;62818;49.394;8.686;2022-12-10T00:34:53;29.63;;;23.27;;
60098;SDS011;62818;49.394;8.686;2022-12-10T00:35:55;28.95;;;23.10;;
60098;SDS011;62818;49.394;8.686;2022-12-10T00:36:58;30.00;;;22.73;;
60098;SDS011;62818;49.394;8.686;2022-12-10T00:37:59;26.33;;;22.63;;
60098;SDS011;62818;49.394;8.686;2022-12-10T00:38:59;28.47;;;23.57;;
60098;SDS011;62818;49.394;8.686;2022-12-10T00:40:04;26.00;;;22.55;;
60098;SDS011;62818;49.394;8.686;2022-12-10T00:41:09;27.80;;;22.65;;
60098;SDS011;62818;49.394;8.686;2022-12-10T00:42:11;28.08;;;22.88;;
60098;SDS011;62818;49.394;8.686;2022-12-10T00:43:16;29.65;;;22.85;;
60098;SDS011;62818;49.394;8.686;2022-12-10T00:44:17;26.87;;;22.33;;
60098;SDS011;62818;49.394;8.686;2022-12-10T00:45:20;28.63;;;22.77;;
60098;SDS011;62818;49.394;8.686;2022-12-10T00:46:22;26.88;;;22.55;;
60098;SDS011;62818;49.394;8.686;2022-12-10T00:47:30;28.13;;;21.88;;
60098;SDS011;62818;49.394;8.686;2022-12-10T00:48:31;27.98;;;23.10;;
60098;SDS011;62818;49.394;8.686;2022-12-10T00:49:32;25.93;;;22.10;;
60098;SDS011;62818;49.394;8.686;2022-12-10T00:50:37;26.15;;;22.08;;
60098;SDS011;62818;49.394;8.686;2022-12-10T00:51:38;27.30;;;22.27;;
60098;SDS011;62818;49.394;8.686;2022-12-10T00:52:38;25.17;;;21.50;;
60098;SDS011;62818;49.394;8.686;2022-12-10T00:53:40;27.10;;;22.50;;
60098;SDS011;62818;49.394;8.686;2022-12-10T00:54:42;25.23;;;22.33;;
60098;SDS011;62818;49.394;8.686;2022-12-10T00:55:45;25.63;;;22.20;;
60098;SDS011;62818;49.394;8.686;2022-12-10T00:56:50;25.55;;;21.75;;
60098;SDS011;62818;49.394;8.686;2022-12-10T00:57:51;23.90;;;21.20;;
60098;SDS011;62818;49.394;8.686;2022-12-10T00:58:54;26.83;;;22.98;;
60098;SDS011;62818;49.394;8.686;2022-12-10T00:59:57;27.17;;;21.98;;
60098;SDS011;62818;49.394;8.686;2022-12-10T01:02:23;27.52;;;21.33;;
60098;SDS011;62818;49.394;8.686;2022-12-10T01:03:26;27.02;;;21.90;;
60098;SDS011;62818;49.394;8.686;2022-12-10T01:04:28;24.20;;;21.07;;
60098;SDS011;62818;49.394;8.686;2022-12-10T01:05:29;26.85;;;21.70;;
60098;SDS011;62818;49.394;8.686;2022-12-10T01:06:30;26.03;;;21.83;;
60098;SDS011;62818;49.394;8.686;2022-12-10T01:07:43;29.67;;;21.77;;
60098;SDS011;62818;49.394;8.686;2022-12-10T01:08:44;24.83;;;21.07;;
60098;SDS011;62818;49.394;8.686;2022-12-10T01:09:49;27.63;;;22.40;;
60098;SDS011;62818;49.394;8.686;2022-12-10T01:10:55;26.83;;;21.13;;
60098;SDS011;62818;49.394;8.686;2022-12-10T01:11:56;25.80;;;21.58;;
60098;SDS011;62818;49.394;8.686;2022-12-10T01:13:04;24.77;;;20.58;;
60098;SDS011;62818;49.394;8.686;2022-12-10T01:14:05;25.67;;;21.27;;
60098;SDS011;62818;49.394;8.686;2022-12-10T01:15:11;24.33;;;20.80;;
60098;SDS011;62818;49.394;8.686;2022-12-10T01:16:14;24.10;;;20.27;;
60098;SDS011;62818;49.394;8.686;2022-12-10T01:17:21;25.52;;;21.08;;
60098;SDS011;62818;49.394;8.686;2022-12-10T01:18:23;25.38;;;20.70;;
60098;SDS011;62818;49.394;8.686;2022-12-10T01:19:26;25.30;;;20.63;;
60098;SDS011;62818;49.394;8.686;2022-12-10T01:20:27;24.92;;;20.80;;
60098;SDS011;62818;49.394;8.686;2022-12-10T01:21:30;24.75;;;20.63;;
60098;SDS011;62818;49.394;8.686;2022-12-10T01:22:33;25.45;;;20.42;;
60098;SDS011;62818;49.394;8.686;2022-12-10T01:23:34;24.80;;;20.63;;
60098;SDS011;62818;49.394;8.686;2022-12-10T01:24:42;24.80;;;20.77;;
60098;SDS011;62818;49.394;8.686;2022-12-10T01:25:43;24.43;;;20.53;;
60098;SDS011;62818;49.394;8.686;2022-12-10T01:26:43;23.67;;;19.90;;
60098;SDS011;62818;49.394;8.686;2022-12-10T01:27:47;23.25;;;20.00;;
60098;SDS011;62818;49.394;8.686;2022-12-10T01:28:47;26.63;;;21.50;;
60098;SDS011;62818;49.394;8.686;2022-12-10T01:29:49;23.63;;;20.75;;
60098;SDS011;62818;49.394;8.686;2022-12-10T01:30:50;25.57;;;21.10;;
60098;SDS011;62818;49.394;8.686;2022-12-10T01:31:53;25.20;;;21.42;;
60098;SDS011;62818;49.394;8.686;2022-12-10T01:32:57;23.98;;;20.83;;
60098;SDS011;62818;49.394;8.686;2022-12-10T01:34:00;29.20;;;20.88;;
60098;SDS011;62818;49.394;8.686;2022-12-10T01:35:06;25.40;;;20.85;;
60098;SDS011;62818;49.394;8.686;2022-12-10T01:36:09;26.15;;;20.80;;
60098;SDS011;62818;49.394;8.686;2022-12-10T01:37:13;29.15;;;20.08;;
60098;SDS011;62818;49.394;8.686;2022-12-10T01:38:16;23.17;;;20.33;;
60098;SDS011;62818;49.394;8.686;2022-12-10T01:39:17;25.87;;;20.43;;
60098;SDS011;62818;49.394;8.686;2022-12-10T01:40:21;23.85;;;19.50;;
60098;SDS011;62818;49.394;8.686;2022-12-10T01:41:23;22.43;;;19.37;;
60098;SDS011;62818;49.394;8.686;2022-12-10T01:42:35;23.52;;;19.77;;
60098;SDS011;62818;49.394;8.686;2022-12-10T01:45:06;23.17;;;19.75;;
60098;SDS011;62818;49.394;8.686;2022-12-10T01:46:12;23.48;;;20.05;;
60098;SDS011;62818;49.394;8.686;2022-12-10T01:47:12;23.67;;;20.03;;
60098;SDS011;62818;49.394;8.686;2022-12-10T01:48:13;25.43;;;20.80;;
60098;SDS011;62818;49.394;8.686;2022-12-10T01:49:15;24.33;;;19.63;;
60098;SDS011;62818;49.394;8.686;2022-12-10T01:50:22;23.60;;;20.48;;
60098;SDS011;62818;49.394;8.686;2022-12-10T01:51:26;23.77;;;20.33;;
60098;SDS011;62818;49.394;8.686;2022-12-10T01:52:30;25.88;;;21.02;;
60098;SDS011;62818;49.394;8.686;2022-12-10T01:53:30;25.63;;;20.20;;
60098;SDS011;62818;49.394;8.686;2022-12-10T01:54:33;24.00;;;19.70;;
60098;SDS011;62818;49.394;8.686;2022-12-10T01:56:49;24.95;;;19.75;;
60098;SDS011;62818;49.394;8.686;2022-12-10T01:57:58;22.45;;;20.05;;
60098;SDS011;62818;49.394;8.686;2022-12-10T01:59:03;27.38;;;20.80;;
60098;SDS011;62818;49.394;8.686;2022-12-10T02:00:10;26.95;;;19.67;;
60098;SDS011;62818;49.394;8.686;2022-12-10T02:02:56;26.27;;;20.42;;
60098;SDS011;62818;49.394;8.686;2022-12-10T02:05:51;27.48;;;21.05;;
60098;SDS011;62818;49.394;8.686;2022-12-10T02:07:09;23.50;;;19.80;;
60098;SDS011;62818;49.394;8.686;2022-12-10T02:08:26;26.15;;;21.45;;
60098;SDS011;62818;49.394;8.686;2022-12-10T02:09:43;23.65;;;19.45;;
60098;SDS011;62818;49.394;8.686;2022-12-10T02:10:59;24.73;;;20.92;;
60098;SDS011;62818;49.394;8.686;2022-12-10T02:13:55;25.92;;;20.35;;
60098;SDS011;62818;49.394;8.686;2022-12-10T02:16:21;23.27;;;19.05;;
60098;SDS011;62818;49.394;8.686;2022-12-10T02:18:02;24.25;;;20.50;;
60098;SDS011;62818;49.394;8.686;2022-12-10T02:20:17;25.65;;;22.02;;
60098;SDS011;62818;49.394;8.686;2022-12-10T02:21:30;24.52;;;21.90;;
60098;SDS011;62818;49.394;8.686;2022-12-10T02:23:01;24.90;;;21.58;;
60098;SDS011;62818;49.394;8.686;2022-12-10T02:24:09;25.88;;;21.35;;
60098;SDS011;62818;49.394;8.686;2022-12-10T02:25:17;26.30;;;21.67;;
60098;SDS011;62818;49.394;8.686;2022-12-10T02:26:25;26.17;;;21.67;;
60098;SDS011;62818;49.394;8.686;2022-12-10T02:29:12;26.08;;;22.48;;
60098;SDS011;62818;49.394;8.686;2022-12-10T02:30:22;26.75;;;22.45;;
60098;SDS011;62818;49.394;8.686;2022-12-10T02:31:25;25.73;;;21.92;;
60098;SDS011;62818;49.394;8.686;2022-12-10T02:32:33;26.83;;;22.50;;
60098;SDS011;62818;49.394;8.686;2022-12-10T02:33:44;26.75;;;22.33;;
60098;SDS011;62818;49.394;8.686;2022-12-10T02:34:52;28.45;;;22.15;;
60098;SDS011;62818;49.394;8.686;2022-12-10T02:36:00;29.35;;;22.90;;
60098;SDS011;62818;49.394;8.686;2022-12-10T02:37:08;27.63;;;22.40;;
60098;SDS011;62818;49.394;8.686;2022-12-10T02:38:23;27.45;;;22.52;;
60098;SDS011;62818;49.394;8.686;2022-12-10T02:39:40;26.58;;;22.20;;
60098;SDS011;62818;49.394;8.686;2022-12-10T02:40:48;28.90;;;21.92;;
60098;SDS011;62818;49.394;8.686;2022-12-10T02:41:58;28.20;;;23.60;;
60098;SDS011;62818;49.394;8.686;2022-12-10T02:45:20;30.58;;;23.25;;
60098;SDS011;62818;49.394;8.686;2022-12-10T02:46:27;25.75;;;21.90;;
60098;SDS011;62818;49.394;8.686;2022-12-10T02:47:32;26.35;;;23.02;;
60098;SDS011;62818;49.394;8.686;2022-12-10T02:48:38;27.80;;;23.15;;
60098;SDS011;62818;49.394;8.686;2022-12-10T02:49:46;27.92;;;22.52;;
60098;SDS011;62818;49.394;8.686;2022-12-10T02:50:55;28.13;;;22.38;;
60098;SDS011;62818;49.394;8.686;2022-12-10T02:51:57;28.55;;;23.95;;
60098;SDS011;62818;49.394;8.686;2022-12-10T02:53:06;28.45;;;23.90;;
60098;SDS011;62818;49.394;8.686;2022-12-10T02:54:32;27.43;;;22.37;;
60098;SDS011;62818;49.394;8.686;2022-12-10T02:58:36;28.38;;;23.85;;
60098;SDS011;62818;49.394;8.686;2022-12-10T02:59:46;31.08;;;25.35;;
60098;SDS011;62818;49.394;8.686;2022-12-10T03:01:37;30.95;;;24.05;;
60098;SDS011;62818;49.394;8.686;2022-12-10T03:04:54;30.88;;;24.05;;
60098;SDS011;62818;49.394;8.686;2022-12-10T03:07:19;29.65;;;24.42;;
60098;SDS011;62818;49.394;8.686;2022-12-10T03:11:42;30.50;;;24.30;;
60098;SDS011;62818;49.394;8.686;2022-12-10T03:12:48;28.48;;;24.35;;
60098;SDS011;62818;49.394;8.686;2022-12-10T03:14:08;30.83;;;24.70;;
60098;SDS011;62818;49.394;8.686;2022-12-10T03:15:26;30.30;;;25.40;;
60098;SDS011;62818;49.394;8.686;2022-12-10T03:16:34;30.75;;;25.25;;
60098;SDS011;62818;49.394;8.686;2022-12-10T03:17:43;29.75;;;25.08;;
60098;SDS011;62818;49.394;8.686;2022-12-10T03:18:47;32.95;;;26.42;;
60098;SDS011;62818;49.394;8.686;2022-12-10T03:19:55;34.47;;;26.42;;
60098;SDS011;62818;49.394;8.686;2022-12-10T03:21:01;31.60;;;26.73;;
60098;SDS011;62818;49.394;8.686;2022-12-10T03:22:06;35.15;;;27.20;;
60098;SDS011;62818;49.394;8.686;2022-12-10T03:23:11;32.28;;;25.42;;
60098;SDS011;62818;49.394;8.686;2022-12-10T03:24:19;32.20;;;26.85;;
60098;SDS011;62818;49.394;8.686;2022-12-10T03:25:26;32.17;;;27.13;;
60098;SDS011;62818;49.394;8.686;2022-12-10T03:26:30;34.17;;;26.38;;
60098;SDS011;62818;49.394;8.686;2022-12-10T03:27:33;31.02;;;26.13;;
60098;SDS011;62818;49.394;8.686;2022-12-10T03:28:40;29.88;;;25.95;;
60098;SDS011;62818;49.394;8.686;2022-12-10T03:29:54;31.40;;;26.77;;
60098;SDS011;62818;49.394;8.686;2022-12-10T03:31:01;32.10;;;26.88;;
60098;SDS011;62818;49.394;8.686;2022-12-10T03:32:03;34.97;;;25.98;;
60098;SDS011;62818;49.394;8.686;2022-12-10T03:33:07;32.00;;;27.05;;
60098;SDS011;62818;49.394;8.686;2022-12-10T03:34:09;34.25;;;27.20;;
60098;SDS011;62818;49.394;8.686;2022-12-10T03:35:14;34.85;;;27.10;;
60098;SDS011;62818;49.394;8.686;2022-12-10T03:36:17;32.97;;;28.42;;
60098;SDS011;62818;49.394;8.686;2022-12-10T03:37:19;32.13;;;27.25;;
60098;SDS011;62818;49.394;8.686;2022-12-10T03:38:22;30.70;;;25.73;;
60098;SDS011;62818;49.394;8.686;2022-12-10T03:39:27;32.38;;;26.38;;
60098;SDS011;62818;49.394;8.686;2022-12-10T03:40:32;33.72;;;28.05;;
60098;SDS011;62818;49.394;8.686;2022-12-10T03:41:32;35.63;;;27.43;;
60098;SDS011;62818;49.394;8.686;2022-12-10T03:42:34;31.53;;;26.50;;
60098;SDS011;62818;49.394;8.686;2022-12-10T03:43:55;33.13;;;27.52;;
60098;SDS011;62818;49.394;8.686;2022-12-10T03:44:57;32.58;;;26.65;;
60098;SDS011;62818;49.394;8.686;2022-12-10T03:46:00;33.30;;;27.27;;
60098;SDS011;62818;49.394;8.686;2022-12-10T03:47:02;30.95;;;26.48;;
60098;SDS011;62818;49.394;8.686;2022-12-10T03:48:06;32.30;;;26.42;;
60098;SDS011;62818;49.394;8.686;2022-12-10T03:49:06;34.40;;;28.07;;
60098;SDS011;62818;49.394;8.686;2022-12-10T03:50:07;36.13;;;27.73;;
60098;SDS011;62818;49.394;8.686;2022-12-10T03:51:09;33.75;;;26.83;;
60098;SDS011;62818;49.394;8.686;2022-12-10T03:52:12;32.77;;;27.87;;
60098;SDS011;62818;49.394;8.686;2022-12-10T03:53:14;34.80;;;27.48;;
60098;SDS011;62818;49.394;8.686;2022-12-10T03:54:15;30.63;;;26.97;;
60098;SDS011;62818;49.394;8.686;2022-12-10T03:55:16;33.00;;;27.47;;
60098;SDS011;62818;49.394;8.686;2022-12-10T03:56:19;33.28;;;26.92;;
60098;SDS011;62818;49.394;8.686;2022-12-10T03:57:21;32.92;;;27.65;;
60098;SDS011;62818;49.394;8.686;2022-12-10T03:58:21;33.97;;;27.13;;
60098;SDS011;62818;49.394;8.686;2022-12-10T03:59:22;31.73;;;28.00;;
60098;SDS011;62818;49.394;8.686;2022-12-10T04:00:25;33.08;;;26.63;;
60098;SDS011;62818;49.394;8.686;2022-12-10T04:01:30;31.05;;;26.70;;
60098;SDS011;62818;49.394;8.686;2022-12-10T04:02:30;31.15;;;26.45;;
60098;SDS011;62818;49.394;8.686;2022-12-10T04:03:34;30.83;;;27.07;;
60098;SDS011;62818;49.394;8.686;2022-12-10T04:04:40;33.40;;;26.90;;
60098;SDS011;62818;49.394;8.686;2022-12-10T04:05:40;30.63;;;26.10;;
60098;SDS011;62818;49.394;8.686;2022-12-10T04:06:41;32.40;;;27.20;;
60098;SDS011;62818;49.394;8.686;2022-12-10T04:07:45;30.83;;;26.08;;
60098;SDS011;62818;49.394;8.686;2022-12-10T04:08:45;29.05;;;25.15;;
60098;SDS011;62818;49.394;8.686;2022-12-10T04:09:47;34.05;;;26.75;;
60098;SDS011;62818;49.394;8.686;2022-12-10T04:10:50;32.17;;;25.63;;
60098;SDS011;62818;49.394;8.686;2022-12-10T04:11:54;30.05;;;25.23;;
60098;SDS011;62818;49.394;8.686;2022-12-10T04:13:03;32.35;;;26.60;;
60098;SDS011;62818;49.394;8.686;2022-12-10T04:14:27;33.30;;;26.92;;
60098;SDS011;62818;49.394;8.686;2022-12-10T04:15:49;29.92;;;26.02;;
60098;SDS011;62818;49.394;8.686;2022-12-10T04:17:08;31.15;;;26.83;;
60098;SDS011;62818;49.394;8.686;2022-12-10T04:18:09;31.67;;;26.90;;
60098;SDS011;62818;49.394;8.686;2022-12-10T04:19:13;36.03;;;26.17;;
60098;SDS011;62818;49.394;8.686;2022-12-10T04:20:17;30.02;;;24.77;;
60098;SDS011;62818;49.394;8.686;2022-12-10T04:21:37;29.77;;;25.13;;
60098;SDS011;62818;49.394;8.686;2022-12-10T04:22:58;31.60;;;25.10;;
60098;SDS011;62818;49.394;8.686;2022-12-10T04:24:18;34.15;;;26.20;;
60098;SDS011;62818;49.394;8.686;2022-12-10T04:25:41;29.95;;;24.73;;
60098;SDS011;62818;49.394;8.686;2022-12-10T04:27:02;32.75;;;25.80;;
60098;SDS011;62818;49.394;8.686;2022-12-10T04:28:14;33.70;;;26.75;;
60098;SDS011;62818;49.394;8.686;2022-12-10T04:29:14;31.90;;;26.73;;
60098;SDS011;62818;49.394;8.686;2022-12-10T04:30:28;36.28;;;26.70;;
60098;SDS011;62818;49.394;8.686;2022-12-10T04:31:28;33.33;;;25.97;;
60098;SDS011;62818;49.394;8.686;2022-12-10T04:32:33;32.42;;;26.95;;
60098;SDS011;62818;49.394;8.686;2022-12-10T04:33:34;30.43;;;26.00;;
60098;SDS011;62818;49.394;8.686;2022-12-10T04:34:34;33.57;;;27.23;;
60098;SDS011;62818;49.394;8.686;2022-12-10T04:35:37;32.57;;;26.53;;
60098;SDS011;62818;49.394;8.686;2022-12-10T04:36:45;33.67;;;27.25;;
60098;SDS011;62818;49.394;8.686;2022-12-10T04:37:48;33.42;;;26.98;;
60098;SDS011;62818;49.394;8.686;2022-12-10T04:38:49;32.20;;;27.37;;
60098;SDS011;62818;49.394;8.686;2022-12-10T04:39:51;32.38;;;27.02;;
60098;SDS011;62818;49.394;8.686;2022-12-10T04:40:53;33.72;;;26.77;;
60098;SDS011;62818;49.394;8.686;2022-12-10T04:41:53;34.37;;;27.07;;
60098;SDS011;62818;49.394;8.686;2022-12-10T04:42:56;30.85;;;26.83;;
60098;SDS011;62818;49.394;8.686;2022-12-10T04:43:57;34.57;;;26.33;;
60098;SDS011;62818;49.394;8.686;2022-12-10T04:45:02;31.65;;;26.02;;
60098;SDS011;62818;49.394;8.686;2022-12-10T04:46:03;33.42;;;26.33;;
60098;SDS011;62818;49.394;8.686;2022-12-10T04:47:04;31.37;;;26.60;;
60098;SDS011;62818;49.394;8.686;2022-12-10T04:48:06;32.85;;;27.75;;
60098;SDS011;62818;49.394;8.686;2022-12-10T04:49:07;31.17;;;26.33;;
60098;SDS011;62818;49.394;8.686;2022-12-10T04:52:14;32.40;;;26.55;;
60098;SDS011;62818;49.394;8.686;2022-12-10T04:53:16;33.28;;;26.67;;
60098;SDS011;62818;49.394;8.686;2022-12-10T04:54:19;30.65;;;26.15;;
60098;SDS011;62818;49.394;8.686;2022-12-10T04:55:22;28.90;;;25.15;;
60098;SDS011;62818;49.394;8.686;2022-12-10T04:56:25;33.97;;;26.63;;
60098;SDS011;62818;49.394;8.686;2022-12-10T04:57:27;32.90;;;25.95;;
60098;SDS011;62818;49.394;8.686;2022-12-10T04:58:30;32.03;;;26.67;;
60098;SDS011;62818;49.394;8.686;2022-12-10T05:00:35;34.88;;;26.65;;
60098;SDS011;62818;49.394;8.686;2022-12-10T05:01:38;31.70;;;27.13;;
60098;SDS011;62818;49.394;8.686;2022-12-10T05:02:39;32.28;;;27.13;;
60098;SDS011;62818;49.394;8.686;2022-12-10T05:03:41;35.45;;;25.90;;
60098;SDS011;62818;49.394;8.686;2022-12-10T05:04:44;31.95;;;26.48;;
60098;SDS011;62818;49.394;8.686;2022-12-10T05:05:44;32.23;;;25.93;;
60098;SDS011;62818;49.394;8.686;2022-12-10T05:06:47;34.00;;;27.20;;
60098;SDS011;62818;49.394;8.686;2022-12-10T05:07:49;32.58;;;26.65;;
60098;SDS011;62818;49.394;8.686;2022-12-10T05:08:49;34.30;;;26.37;;
60098;SDS011;62818;49.394;8.686;2022-12-10T05:09:50;30.83;;;26.03;;
60098;SDS011;62818;49.394;8.686;2022-12-10T05:10:50;31.03;;;25.63;;
60098;SDS011;62818;49.394;8.686;2022-12-10T05:11:53;35.17;;;26.95;;
60098;SDS011;62818;49.394;8.686;2022-12-10T05:12:53;32.73;;;26.83;;
60098;SDS011;62818;49.394;8.686;2022-12-10T05:14:01;31.65;;;26.27;;
60098;SDS011;62818;49.394;8.686;2022-12-10T05:15:04;33.85;;;26.25;;
60098;SDS011;62818;49.394;8.686;2022-12-10T05:16:11;31.83;;;26.05;;
60098;SDS011;62818;49.394;8.686;2022-12-10T05:17:15;30.75;;;26.13;;
60098;SDS011;62818;49.394;8.686;2022-12-10T05:18:15;31.47;;;27.07;;
60098;SDS011;62818;49.394;8.686;2022-12-10T05:19:16;36.13;;;27.70;;
60098;SDS011;62818;49.394;8.686;2022-12-10T05:20:24;30.95;;;26.27;;
60098;SDS011;62818;49.394;8.686;2022-12-10T05:21:25;32.88;;;26.80;;
60098;SDS011;62818;49.394;8.686;2022-12-10T05:22:46;31.55;;;26.30;;
60098;SDS011;62818;49.394;8.686;2022-12-10T05:24:08;37.03;;;26.70;;
60098;SDS011;62818;49.394;8.686;2022-12-10T05:25:09;31.67;;;26.57;;
60098;SDS011;62818;49.394;8.686;2022-12-10T05:26:16;31.70;;;26.27;;
60098;SDS011;62818;49.394;8.686;2022-12-10T05:27:23;30.10;;;25.25;;
60098;SDS011;62818;49.394;8.686;2022-12-10T05:28:23;33.60;;;27.20;;
60098;SDS011;62818;49.394;8.686;2022-12-10T05:29:27;34.78;;;26.65;;
60098;SDS011;62818;49.394;8.686;2022-12-10T05:30:27;31.52;;;26.60;;
60098;SDS011;62818;49.394;8.686;2022-12-10T05:31:29;30.63;;;26.67;;
60098;SDS011;62818;49.394;8.686;2022-12-10T05:32:32;33.45;;;26.38;;
60098;SDS011;62818;49.394;8.686;2022-12-10T05:33:33;33.00;;;27.23;;
60098;SDS011;62818;49.394;8.686;2022-12-10T05:34:36;32.40;;;26.83;;
60098;SDS011;62818;49.394;8.686;2022-12-10T05:35:36;32.40;;;26.55;;
60098;SDS011;62818;49.394;8.686;2022-12-10T05:36:40;34.67;;;26.95;;
60098;SDS011;62818;49.394;8.686;2022-12-10T05:37:41;33.63;;;27.00;;
60098;SDS011;62818;49.394;8.686;2022-12-10T05:38:41;32.77;;;26.33;;
60098;SDS011;62818;49.394;8.686;2022-12-10T05:39:47;32.47;;;26.92;;
60098;SDS011;62818;49.394;8.686;2022-12-10T05:40:50;33.45;;;27.05;;
60098;SDS011;62818;49.394;8.686;2022-12-10T05:41:53;30.60;;;26.85;;
60098;SDS011;62818;49.394;8.686;2022-12-10T05:42:57;30.80;;;27.10;;
60098;SDS011;62818;49.394;8.686;2022-12-10T05:43:57;33.10;;;26.30;;
60098;SDS011;62818;49.394;8.686;2022-12-10T05:44:59;31.35;;;27.73;;
60098;SDS011;62818;49.394;8.686;2022-12-10T05:46:00;30.30;;;26.80;;
60098;SDS011;62818;49.394;8.686;2022-12-10T05:47:07;31.73;;;26.38;;
60098;SDS011;62818;49.394;8.686;2022-12-10T05:48:08;33.93;;;28.03;;
60098;SDS011;62818;49.394;8.686;2022-12-10T05:49:11;33.53;;;26.65;;
60098;SDS011;62818;49.394;8.686;2022-12-10T05:50:18;33.97;;;27.95;;
60098;SDS011;62818;49.394;8.686;2022-12-10T05:51:20;35.58;;;27.48;;
60098;SDS011;62818;49.394;8.686;2022-12-10T05:52:24;33.85;;;27.85;;
60098;SDS011;62818;49.394;8.686;2022-12-10T05:53:26;31.02;;;25.45;;
60098;SDS011;62818;49.394;8.686;2022-12-10T05:54:29;30.13;;;26.47;;
60098;SDS011;62818;49.394;8.686;2022-12-10T05:55:30;33.72;;;26.85;;
60098;SDS011;62818;49.394;8.686;2022-12-10T05:56:36;31.80;;;27.25;;
60098;SDS011;62818;49.394;8.686;2022-12-10T05:57:42;31.80;;;27.40;;
60098;SDS011;62818;49.394;8.686;2022-12-10T05:58:43;32.00;;;27.17;;
60098;SDS011;62818;49.394;8.686;2022-12-10T05:59:48;32.90;;;27.83;;
60098;SDS011;62818;49.394;8.686;2022-12-10T06:00:51;33.92;;;27.75;;
60098;SDS011;62818;49.394;8.686;2022-12-10T06:01:51;33.37;;;27.70;;
60098;SDS011;62818;49.394;8.686;2022-12-10T06:02:52;32.47;;;27.37;;
60098;SDS011;62818;49.394;8.686;2022-12-10T06:03:56;32.85;;;26.08;;
60098;SDS011;62818;49.394;8.686;2022-12-10T06:05:01;31.88;;;26.92;;
60098;SDS011;62818;49.394;8.686;2022-12-10T06:06:02;31.30;;;26.60;;
60098;SDS011;62818;49.394;8.686;2022-12-10T06:07:03;32.17;;;26.75;;
60098;SDS011;62818;49.394;8.686;2022-12-10T06:08:04;33.80;;;27.33;;
60098;SDS011;62818;49.394;8.686;2022-12-10T06:09:10;31.00;;;26.33;;
60098;SDS011;62818;49.394;8.686;2022-12-10T06:10:13;29.75;;;25.95;;
60098;SDS011;62818;49.394;8.686;2022-12-10T06:11:17;32.97;;;26.70;;
60098;SDS011;62818;49.394;8.686;2022-12-10T06:12:22;32.00;;;25.95;;
60098;SDS011;62818;49.394;8.686;2022-12-10T06:13:25;34.35;;;27.00;;
60098;SDS011;62818;49.394;8.686;2022-12-10T06:14:25;33.50;;;27.00;;
60098;SDS011;62818;49.394;8.686;2022-12-10T06:15:26;30.27;;;26.23;;
60098;SDS011;62818;49.394;8.686;2022-12-10T06:16:27;31.90;;;27.13;;
60098;SDS011;62818;49.394;8.686;2022-12-10T06:17:29;33.08;;;26.98;;
60098;SDS011;62818;49.394;8.686;2022-12-10T06:18:29;35.37;;;27.33;;
60098;SDS011;62818;49.394;8.686;2022-12-10T06:19:33;33.97;;;28.15;;
60098;SDS011;62818;49.394;8.686;2022-12-10T06:20:34;35.80;;;28.93;;
60098;SDS011;62818;49.394;8.686;2022-12-10T06:21:38;33.00;;;25.83;;
60098;SDS011;62818;49.394;8.686;2022-12-10T06:22:39;32.13;;;26.93;;
60098;SDS011;62818;49.394;8.686;2022-12-10T06:23:42;31.60;;;26.63;;
60098;SDS011;62818;49.394;8.686;2022-12-10T06:24:43;33.50;;;27.67;;
60098;SDS011;62818;49.394;8.686;2022-12-10T06:25:46;35.08;;;26.83;;
60098;SDS011;62818;49.394;8.686;2022-12-10T06:26:49;35.67;;;27.55;;
60098;SDS011;62818;49.394;8.686;2022-12-10T06:27:51;38.38;;;28.52;;
60098;SDS011;62818;49.394;8.686;2022-12-10T06:28:54;33.53;;;27.83;;
60098;SDS011;62818;49.394;8.686;2022-12-10T06:29:54;34.10;;;28.25;;
60098;SDS011;62818;49.394;8.686;2022-12-10T06:31:00;33.72;;;27.77;;
60098;SDS011;62818;49.394;8.686;2022-12-10T06:32:03;33.80;;;27.88;;
60098;SDS011;62818;49.394;8.686;2022-12-10T06:33:06;33.67;;;27.60;;
60098;SDS011;62818;49.394;8.686;2022-12-10T06:34:08;33.92;;;27.95;;
60098;SDS011;62818;49.394;8.686;2022-12-10T06:35:11;31.85;;;27.10;;
60098;SDS011;62818;49.394;8.686;2022-12-10T06:36:14;40.28;;;29.52;;
60098;SDS011;62818;49.394;8.686;2022-12-10T06:37:19;37.20;;;29.25;;
60098;SDS011;62818;49.394;8.686;2022-12-10T06:38:22;33.17;;;28.53;;
60098;SDS011;62818;49.394;8.686;2022-12-10T06:39:25;37.17;;;28.63;;
60098;SDS011;62818;49.394;8.686;2022-12-10T06:40:26;36.37;;;28.03;;
60098;SDS011;62818;49.394;8.686;2022-12-10T06:41:26;37.50;;;29.67;;
60098;SDS011;62818;49.394;8.686;2022-12-10T06:42:27;35.75;;;28.60;;
60098;SDS011;62818;49.394;8.686;2022-12-10T06:43:32;36.13;;;28.83;;
60098;SDS011;62818;49.394;8.686;2022-12-10T06:44:33;36.58;;;29.15;;
60098;SDS011;62818;49.394;8.686;2022-12-10T06:45:39;38.35;;;28.52;;
60098;SDS011;62818;49.394;8.686;2022-12-10T06:46:46;35.90;;;29.00;;
60098;SDS011;62818;49.394;8.686;2022-12-10T06:47:46;35.80;;;30.05;;